Time;durP1;ratioP1;P1;durP2;ratioP2;P2;SDS_P1;SDS_P2;PMS_P1;PMS_P2;Temp;Humidity;BMP_temperature;BMP_pressure;BME280_temperature;BME280_humidity;BME280_pressure;Samples;Min_cycle;Max_cycle;Signal;HPM_P1;HPM_P2
2023/04/11 00:00:54;;;;;;;15.20;8.27;;;;;;;7.34;76.97;100543.91;4898736;29;20080;-73
2023/04/11 00:03:21;;;;;;;10.80;8.00;;;;;;;7.35;76.65;100544.75;4900707;29;20077;-72
2023/04/11 00:05:48;;;;;;;14.90;8.20;;;;;;;7.31;76.90;100543.34;4918181;29;20417;-73
2023/04/11 00:08:14;;;;;;;12.60;8.75;;;;;;;7.32;76.81;100548.53;4918241;29;20088;-73
2023/04/11 00:10:41;;;;;;;11.85;7.85;;;;;;;7.32;76.86;100532.50;4900850;29;20044;-73
2023/04/11 00:13:10;;;;;;;14.40;8.00;;;;;;;7.32;77.45;100529.00;4900723;29;20048;-73
2023/04/11 00:15:38;;;;;;;12.88;8.88;;;;;;;7.30;77.41;100525.66;4917657;29;20398;-73
2023/04/11 00:18:05;;;;;;;13.07;8.18;;;;;;;7.33;77.60;100512.03;4918043;29;20068;-74
2023/04/11 00:20:32;;;;;;;11.95;7.68;;;;;;;7.28;77.78;100522.28;4917381;29;20075;-73
2023/04/11 00:22:59;;;;;;;12.60;8.30;;;;;;;7.30;77.83;100523.00;4917054;29;20055;-73
2023/04/11 00:25:26;;;;;;;14.55;8.82;;;;;;;7.26;78.37;100510.94;4915240;29;20566;-73
2023/04/11 00:27:52;;;;;;;13.43;8.77;;;;;;;7.25;78.23;100504.72;4913747;29;20135;-72
2023/04/11 00:30:19;;;;;;;11.38;8.40;;;;;;;7.18;78.81;100500.94;4917545;29;20048;-74
2023/04/11 00:32:46;;;;;;;11.70;7.88;;;;;;;7.24;79.03;100500.38;4917406;29;20079;-73
2023/04/11 00:35:13;;;;;;;14.00;8.40;;;;;;;7.12;79.91;100491.72;4913210;29;20416;-73
2023/04/11 00:37:43;;;;;;;14.68;8.00;;;;;;;7.14;80.29;100487.06;4906108;29;20131;-73
2023/04/11 00:40:14;;;;;;;14.20;8.70;;;;;;;7.13;81.16;100480.06;4897969;29;20382;-75
2023/04/11 00:42:41;;;;;;;14.05;8.68;;;;;;;7.09;82.23;100477.81;4896175;29;20072;-73
2023/04/11 00:45:08;;;;;;;13.38;8.25;;;;;;;7.01;82.34;100470.50;4899420;29;20049;-74
2023/04/11 00:47:35;;;;;;;10.27;7.72;;;;;;;6.98;83.43;100470.81;4899942;29;20080;-74
2023/04/11 00:50:01;;;;;;;11.82;7.88;;;;;;;6.99;83.62;100469.84;4899066;29;20513;-75
2023/04/11 00:52:28;;;;;;;11.32;7.70;;;;;;;6.93;84.04;100468.56;4898909;29;20554;-73
2023/04/11 00:54:55;;;;;;;12.18;8.43;;;;;;;6.94;84.52;100475.59;4898748;29;20059;-74
2023/04/11 00:57:24;;;;;;;11.07;7.82;;;;;;;6.95;84.60;100465.78;4897644;29;20091;-74
2023/04/11 00:59:51;;;;;;;13.23;7.75;;;;;;;6.94;84.24;100453.41;4864872;29;20105;-73
2023/04/11 01:02:17;;;;;;;13.82;8.45;;;;;;;6.87;84.92;100457.63;4906337;29;20058;-74
2023/04/11 01:04:45;;;;;;;10.82;7.43;;;;;;;6.86;85.37;100459.47;4915619;29;20048;-74
2023/04/11 01:07:24;;;;;;;10.80;7.97;;;;;;;6.87;85.35;100452.28;4918351;29;20059;-73
2023/04/11 01:09:52;;;;;;;10.80;7.65;;;;;;;6.86;85.82;100450.63;4914243;29;20048;-74
2023/04/11 01:12:22;;;;;;;11.60;7.60;;;;;;;6.82;86.36;100446.56;4916511;29;20052;-73
2023/04/11 01:14:49;;;;;;;14.10;7.35;;;;;;;6.83;86.08;100438.41;4915153;29;20131;-73
2023/04/11 01:17:16;;;;;;;16.95;8.77;;;;;;;6.88;85.79;100430.00;4914591;29;20119;-72
2023/04/11 01:19:42;;;;;;;13.63;8.18;;;;;;;6.83;86.85;100414.41;4911817;29;20497;-74
2023/04/11 01:22:11;;;;;;;12.00;7.38;;;;;;;6.81;87.15;100408.41;4915042;29;20052;-73
2023/04/11 01:24:38;;;;;;;10.88;7.97;;;;;;;6.77;88.13;100400.81;4866579;29;20075;-75
2023/04/11 01:27:05;;;;;;;10.13;7.63;;;;;;;6.73;87.75;100413.59;4915146;29;20127;-74
2023/04/11 01:29:32;;;;;;;10.98;7.28;;;;;;;6.71;87.65;100403.06;4909381;29;20071;-74
2023/04/11 01:31:59;;;;;;;10.27;7.40;;;;;;;6.69;88.13;100405.03;4915520;29;20139;-74
2023/04/11 01:34:27;;;;;;;14.60;8.15;;;;;;;6.63;88.61;100396.75;4915626;29;20421;-74
2023/04/11 01:36:54;;;;;;;11.20;7.55;;;;;;;6.66;88.82;100386.66;4914438;29;20132;-74
2023/04/11 01:39:21;;;;;;;10.93;7.57;;;;;;;6.67;89.12;100380.34;4915723;29;20572;-73
2023/04/11 01:41:48;;;;;;;10.30;7.32;;;;;;;6.67;89.94;100376.84;4915266;29;20052;-74
2023/04/11 01:44:14;;;;;;;11.13;7.32;;;;;;;6.65;90.26;100376.16;4914945;29;20058;-72
2023/04/11 01:46:42;;;;;;;10.48;7.72;;;;;;;6.60;91.67;100362.38;4914318;29;20569;-73
2023/04/11 01:49:08;;;;;;;12.27;8.23;;;;;;;6.57;91.44;100360.88;4897047;29;20048;-73
2023/04/11 01:51:35;;;;;;;13.18;7.55;;;;;;;6.56;91.70;100353.84;4904863;29;20111;-74
2023/04/11 01:54:02;;;;;;;13.55;8.40;;;;;;;6.53;91.67;100345.28;4912387;29;20417;-73
2023/04/11 01:56:28;;;;;;;11.75;8.00;;;;;;;6.55;93.13;100351.34;4913690;29;20127;-73
2023/04/11 01:58:57;;;;;;;10.30;7.45;;;;;;;6.46;92.78;100345.88;4913425;29;20413;-73
2023/04/11 02:01:25;;;;;;;13.73;7.93;;;;;;;6.45;94.15;100346.00;4913839;29;20576;-74
2023/04/11 02:03:51;;;;;;;12.45;8.05;;;;;;;6.47;94.43;100338.72;4914126;29;20134;-74
2023/04/11 02:06:18;;;;;;;10.90;7.30;;;;;;;6.55;94.26;100333.50;4913056;29;20048;-74
2023/04/11 02:08:44;;;;;;;12.85;7.97;;;;;;;6.47;94.27;100326.25;4913052;29;20055;-74
2023/04/11 02:11:11;;;;;;;10.80;7.45;;;;;;;6.50;94.84;100327.78;4913075;29;20501;-74
2023/04/11 02:13:37;;;;;;;10.68;7.32;;;;;;;6.52;94.06;100319.63;4908489;29;20051;-73
2023/04/11 02:16:10;;;;;;;13.43;7.95;;;;;;;6.54;93.78;100320.34;4894359;29;20371;-73
2023/04/11 02:18:37;;;;;;;12.10;7.80;;;;;;;6.49;94.07;100302.09;4894324;29;20112;-74
2023/04/11 02:21:04;;;;;;;10.68;7.47;;;;;;;6.43;95.38;100298.22;4885864;29;20190;-74
2023/04/11 02:23:31;;;;;;;12.10;8.80;;;;;;;6.54;94.81;100296.38;4895127;29;20048;-73
2023/04/11 02:25:58;;;;;;;12.13;7.45;;;;;;;6.48;95.24;100298.59;4893753;29;20071;-73
2023/04/11 02:28:24;;;;;;;11.77;8.27;;;;;;;6.39;96.79;100279.97;4894508;29;20044;-74
2023/04/11 02:30:51;;;;;;;10.25;7.43;;;;;;;6.47;96.26;100296.09;4894661;29;20058;-73
2023/04/11 02:33:18;;;;;;;12.07;8.35;;;;;;;6.39;98.08;100282.63;4891687;29;20469;-73
2023/04/11 02:35:45;;;;;;;13.15;8.30;;;;;;;6.38;98.20;100284.47;4894163;29;20413;-73
2023/04/11 02:38:12;;;;;;;10.48;7.70;;;;;;;6.39;98.32;100279.97;4893918;29;20056;-73
2023/04/11 02:40:38;;;;;;;12.20;7.75;;;;;;;6.42;98.44;100269.03;4894489;29;20521;-74
2023/04/11 02:43:05;;;;;;;15.40;8.18;;;;;;;6.43;98.46;100271.56;4877881;29;20059;-73
2023/04/11 02:45:32;;;;;;;10.20;7.70;;;;;;;6.43;98.97;100266.22;4894163;29;20044;-73
2023/04/11 02:47:58;;;;;;;14.07;8.43;;;;;;;6.37;99.06;100257.97;4894584;29;20548;-74
2023/04/11 02:50:25;;;;;;;11.57;7.97;;;;;;;6.44;98.98;100262.56;4894086;29;20059;-73
2023/04/11 02:52:52;;;;;;;12.70;8.43;;;;;;;6.41;99.35;100256.69;4894766;29;20068;-74
2023/04/11 02:55:22;;;;;;;10.65;7.90;;;;;;;6.40;100.00;100257.69;4894320;29;20066;-73
2023/04/11 02:57:48;;;;;;;13.25;8.73;;;;;;;6.42;100.00;100261.88;4894085;29;20052;-74
2023/04/11 03:00:18;;;;;;;11.52;8.10;;;;;;;6.38;100.00;100256.97;4893325;29;20059;-73
2023/04/11 03:02:45;;;;;;;11.95;8.15;;;;;;;6.41;100.00;100254.03;4890159;29;20055;-73
2023/04/11 03:05:11;;;;;;;12.77;8.57;;;;;;;6.36;100.00;100256.31;4914124;29;20048;-73
2023/04/11 03:07:39;;;;;;;14.30;9.57;;;;;;;6.41;100.00;100254.03;4916742;29;20052;-73
2023/04/11 03:10:06;;;;;;;13.35;8.52;;;;;;;6.36;100.00;100242.97;4916596;29;20103;-73
2023/04/11 03:12:33;;;;;;;13.98;9.02;;;;;;;6.32;100.00;100245.09;4912576;29;20064;-73
2023/04/11 03:14:59;;;;;;;11.55;8.20;;;;;;;6.33;100.00;100241.44;4897715;29;20135;-74
2023/04/11 03:17:26;;;;;;;13.02;9.15;;;;;;;6.34;100.00;100240.44;4897663;29;20048;-73
2023/04/11 03:19:52;;;;;;;12.80;9.07;;;;;;;6.33;100.00;100228.13;4898169;29;20498;-73
2023/04/11 03:22:19;;;;;;;14.50;9.65;;;;;;;6.34;100.00;100231.63;4897021;29;20049;-72
2023/04/11 03:24:45;;;;;;;14.80;9.50;;;;;;;6.22;100.00;100228.25;4897085;29;20084;-73
2023/04/11 03:27:12;;;;;;;13.07;8.98;;;;;;;6.28;100.00;100230.34;4896561;29;20081;-73
2023/04/11 03:29:39;;;;;;;12.40;9.10;;;;;;;6.28;100.00;100227.69;4896641;29;20085;-73
2023/04/11 03:32:05;;;;;;;13.32;9.00;;;;;;;6.29;100.00;100228.53;4896538;29;20095;-74
2023/04/11 03:34:32;;;;;;;12.70;9.13;;;;;;;6.30;100.00;100227.56;4896257;29;20156;-74
2023/04/11 03:36:58;;;;;;;13.90;8.73;;;;;;;6.40;100.00;100226.56;4896864;29;20053;-74
2023/04/11 03:39:25;;;;;;;13.63;8.65;;;;;;;6.29;100.00;100225.88;4898370;29;20051;-73
2023/04/11 03:41:52;;;;;;;13.90;8.73;;;;;;;6.24;100.00;100227.13;4897614;29;20048;-74
2023/04/11 03:44:18;;;;;;;12.90;8.45;;;;;;;6.32;100.00;100222.91;4897282;29;20529;-73
2023/04/11 03:46:45;;;;;;;12.35;8.60;;;;;;;6.36;100.00;100225.16;4897646;29;20052;-75
2023/04/11 03:49:11;;;;;;;12.23;7.85;;;;;;;6.32;100.00;100220.25;4894326;29;20060;-76
2023/04/11 03:51:38;;;;;;;11.35;8.15;;;;;;;6.30;100.00;100224.91;4896624;29;20063;-76
2023/04/11 03:54:04;;;;;;;11.70;8.00;;;;;;;6.36;100.00;100203.03;4897322;29;20044;-75
2023/04/11 03:56:31;;;;;;;13.30;7.75;;;;;;;6.33;100.00;100211.28;4897467;29;20136;-76
2023/04/11 03:58:57;;;;;;;11.55;7.88;;;;;;;6.34;100.00;100207.63;4888470;29;20044;-76
2023/04/11 04:01:24;;;;;;;14.55;8.10;;;;;;;6.39;100.00;100197.38;4898978;29;20044;-76
2023/04/11 04:03:50;;;;;;;13.02;8.00;;;;;;;6.36;100.00;100195.84;4915369;29;20064;-74
2023/04/11 04:06:17;;;;;;;10.57;7.68;;;;;;;6.41;100.00;100201.56;4915762;29;20052;-73
2023/04/11 04:08:44;;;;;;;11.23;7.82;;;;;;;6.42;100.00;100203.25;4914902;29;20063;-73
2023/04/11 04:11:10;;;;;;;10.15;7.13;;;;;;;6.44;100.00;100198.63;4916063;29;20476;-74
2023/04/11 04:13:37;;;;;;;9.73;7.13;;;;;;;6.43;100.00;100198.78;4898813;29;20056;-74
2023/04/11 04:16:04;;;;;;;8.30;6.57;;;;;;;6.46;100.00;100195.84;4906381;29;20052;-73
2023/04/11 04:18:30;;;;;;;9.77;6.78;;;;;;;6.49;100.00;100192.84;4914777;29;20134;-73
2023/04/11 04:20:57;;;;;;;12.40;6.70;;;;;;;6.53;100.00;100194.25;4915576;29;20056;-72
2023/04/11 04:23:24;;;;;;;11.10;6.70;;;;;;;6.47;100.00;100205.50;4914952;29;20485;-74
2023/04/11 04:25:51;;;;;;;9.23;6.65;;;;;;;6.41;100.00;100208.72;4914592;29;20108;-73
2023/04/11 04:28:21;;;;;;;10.70;7.15;;;;;;;6.39;100.00;100202.69;4882277;29;20052;-74
2023/04/11 04:30:53;;;;;;;17.23;7.45;;;;;;;6.22;100.00;100213.13;4915625;29;20055;-74
2023/04/11 04:33:20;;;;;;;11.68;7.68;;;;;;;6.07;100.00;100206.53;4913868;29;20055;-74
2023/04/11 04:35:46;;;;;;;13.55;8.55;;;;;;;5.75;100.00;100210.38;4914800;29;20062;-74
2023/04/11 04:38:16;;;;;;;16.10;8.73;;;;;;;5.60;100.00;100210.97;4897112;29;20048;-74
2023/04/11 04:40:44;;;;;;;15.35;9.07;;;;;;;5.46;100.00;100209.56;4912973;29;20501;-74
2023/04/11 04:43:17;;;;;;;13.43;9.55;;;;;;;5.20;100.00;100196.78;4928351;29;20048;-73
2023/04/11 04:45:44;;;;;;;14.95;10.15;;;;;;;5.25;100.00;100197.22;4924293;29;20119;-74
2023/04/11 04:48:14;;;;;;;16.08;10.82;;;;;;;5.36;100.00;100190.09;4923485;29;20055;-73
2023/04/11 04:50:40;;;;;;;17.08;11.32;;;;;;;5.34;100.00;100184.06;4933203;29;20056;-74
2023/04/11 04:53:07;;;;;;;18.13;10.65;;;;;;;5.24;100.00;100194.69;4920400;29;20044;-75
2023/04/11 04:55:34;;;;;;;17.77;11.52;;;;;;;5.22;100.00;100186.88;4913843;29;20109;-76
2023/04/11 04:58:02;;;;;;;17.60;11.13;;;;;;;5.05;100.00;100190.22;4915437;29;20119;-76
2023/04/11 05:00:28;;;;;;;16.88;11.13;;;;;;;5.14;100.00;100183.22;4904588;29;20048;-76
2023/04/11 05:02:55;;;;;;;16.25;11.02;;;;;;;5.16;100.00;100184.75;4913045;29;20405;-76
2023/04/11 05:05:21;;;;;;;78.22;21.00;;;;;;;5.07;100.00;100174.94;4914373;29;20047;-76
2023/04/11 05:07:48;;;;;;;17.20;11.45;;;;;;;5.00;100.00;100182.63;4909645;29;20147;-76
2023/04/11 05:10:15;;;;;;;17.40;11.18;;;;;;;5.49;100.00;100182.66;4914527;29;20420;-76
2023/04/11 05:12:41;;;;;;;18.27;11.25;;;;;;;5.40;100.00;100178.19;4914415;29;20058;-76
2023/04/11 05:15:10;;;;;;;16.35;11.55;;;;;;;5.36;100.00;100172.31;4897700;29;20083;-76
2023/04/11 05:17:37;;;;;;;14.48;10.05;;;;;;;5.10;100.00;100164.03;4891728;29;20466;-76
2023/04/11 05:20:06;;;;;;;17.77;12.02;;;;;;;4.98;100.00;100150.03;4895481;29;20137;-77
2023/04/11 05:22:32;;;;;;;17.13;11.70;;;;;;;4.98;100.00;100158.00;4902134;29;20056;-76
2023/04/11 05:28:02;;;;;;;16.77;11.40;;;;;;;4.94;100.00;100161.09;5419037;23;20044;-75
2023/04/11 05:30:28;;;;;;;22.42;10.63;;;;;;;4.94;100.00;100172.56;4947764;23;20154;-75
2023/04/11 05:32:55;;;;;;;17.42;11.05;;;;;;;4.92;100.00;100165.69;4932959;29;20068;-75
2023/04/11 05:35:21;;;;;;;19.85;10.98;;;;;;;4.96;100.00;100165.28;4929120;29;20513;-75
2023/04/11 05:37:48;;;;;;;20.30;11.07;;;;;;;4.89;100.00;100169.47;4932709;29;20056;-76
2023/04/11 05:40:15;;;;;;;19.35;12.18;;;;;;;4.93;100.00;100162.88;4918735;29;20493;-75
2023/04/11 05:42:41;;;;;;;16.98;11.38;;;;;;;4.66;100.00;100168.88;4915015;29;20058;-76
2023/04/11 05:45:08;;;;;;;17.85;11.32;;;;;;;4.72;100.00;100180.75;4913056;29;20464;-75
2023/04/11 05:47:35;;;;;;;20.92;11.77;;;;;;;4.77;100.00;100191.81;4914487;29;20056;-75
2023/04/11 05:50:01;;;;;;;18.08;11.90;;;;;;;4.89;100.00;100174.78;4914778;29;20413;-75
2023/04/11 05:52:28;;;;;;;21.38;11.43;;;;;;;4.84;100.00;100178.84;4914203;29;20492;-75
2023/04/11 05:54:54;;;;;;;19.40;11.80;;;;;;;4.86;100.00;100180.38;4913909;29;20135;-75
2023/04/11 05:57:22;;;;;;;17.52;12.32;;;;;;;4.87;100.00;100179.41;4913992;29;20052;-76
2023/04/11 05:59:48;;;;;;;17.38;11.95;;;;;;;4.86;100.00;100179.53;4913543;29;20052;-77
2023/04/11 06:02:15;;;;;;;18.20;12.32;;;;;;;4.87;100.00;100179.41;4922954;29;20501;-77
2023/04/11 06:04:42;;;;;;;19.52;11.95;;;;;;;4.87;100.00;100178.53;4932865;29;20143;-77
2023/04/11 06:07:09;;;;;;;18.85;12.20;;;;;;;4.93;100.00;100183.31;4932891;29;20071;-77
2023/04/11 06:09:40;;;;;;;25.00;13.13;;;;;;;5.12;100.00;100177.22;4933664;29;20048;-76
2023/04/11 06:12:07;;;;;;;19.73;11.77;;;;;;;5.04;100.00;100177.91;4934080;29;20058;-76
2023/04/11 06:14:34;;;;;;;18.23;12.32;;;;;;;5.01;100.00;100183.50;4935458;29;20067;-76
2023/04/11 06:17:02;;;;;;;16.23;11.73;;;;;;;5.04;100.00;100169.94;4935464;29;20075;-76
2023/04/11 06:19:29;;;;;;;20.52;13.27;;;;;;;5.26;100.00;100167.00;4933645;29;20058;-76
2023/04/11 06:21:56;;;;;;;23.60;13.77;;;;;;;5.16;100.00;100167.97;4934515;29;20055;-77
2023/04/11 06:24:36;;;;;;;24.65;12.45;;;;;;;5.21;100.00;100171.91;4935515;29;20051;-77
2023/04/11 06:27:04;;;;;;;18.83;12.55;;;;;;;5.15;100.00;100168.97;4934151;29;20054;-77
2023/04/11 06:29:31;;;;;;;23.95;12.82;;;;;;;5.17;100.00;100167.81;4926935;29;20043;-77
2023/04/11 06:31:58;;;;;;;19.20;12.57;;;;;;;5.24;100.00;100168.94;4916096;29;20048;-76
2023/04/11 06:34:25;;;;;;;23.58;12.27;;;;;;;5.20;100.00;100156.06;4911773;29;20044;-76
2023/04/11 06:36:51;;;;;;;20.08;12.77;;;;;;;5.12;100.00;100159.44;4914565;29;20059;-76
2023/04/11 06:39:18;;;;;;;21.45;12.30;;;;;;;5.16;100.00;100160.00;4914090;29;20465;-76
2023/04/11 06:41:48;;;;;;;18.42;12.45;;;;;;;5.18;100.00;100156.22;4915139;29;20051;-76
2023/04/11 06:44:14;;;;;;;16.73;12.40;;;;;;;5.16;100.00;100155.50;4915228;29;20416;-76
2023/04/11 06:46:41;;;;;;;20.10;12.98;;;;;;;5.11;100.00;100165.75;4921366;29;20068;-76
2023/04/11 06:49:08;;;;;;;20.15;13.77;;;;;;;5.26;100.00;100166.16;4924495;29;20206;-74
2023/04/11 06:51:35;;;;;;;21.52;13.38;;;;;;;5.28;100.00;100158.84;4909470;29;20063;-76
2023/04/11 06:54:02;;;;;;;19.27;12.52;;;;;;;5.34;100.00;100163.63;4891143;29;20431;-74
2023/04/11 06:56:29;;;;;;;19.70;13.85;;;;;;;5.31;100.00;100169.22;4906039;29;20091;-76
2023/04/11 06:58:57;;;;;;;18.52;12.68;;;;;;;5.28;100.00;100174.81;4906875;29;20079;-76
2023/04/11 07:01:31;;;;;;;19.25;12.98;;;;;;;5.37;100.00;100178.47;4906528;29;20057;-75
2023/04/11 07:03:57;;;;;;;25.13;14.10;;;;;;;5.47;100.00;100181.97;4902683;29;20103;-75
2023/04/11 07:06:25;;;;;;;22.65;13.05;;;;;;;5.47;100.00;100181.97;4915121;29;20085;-73
2023/04/11 07:08:52;;;;;;;24.10;13.52;;;;;;;5.53;100.00;100171.63;4917167;29;20057;-74
2023/04/11 07:11:19;;;;;;;22.13;13.75;;;;;;;5.57;100.00;100174.84;4916371;29;20064;-73
2023/04/11 07:13:46;;;;;;;19.35;12.77;;;;;;;5.46;100.00;100178.47;4909430;29;20123;-74
2023/04/11 07:16:12;;;;;;;19.58;12.18;;;;;;;5.58;100.00;100178.34;4916442;29;20037;-74
2023/04/11 07:18:39;;;;;;;17.98;12.27;;;;;;;5.53;100.00;100179.59;4912105;29;20059;-74
2023/04/11 07:21:11;;;;;;;21.30;12.23;;;;;;;5.66;100.00;100183.78;4916803;29;20490;-71
2023/04/11 07:23:37;;;;;;;19.48;13.35;;;;;;;6.00;100.00;100181.47;4900636;29;20041;-72
2023/04/11 07:26:05;;;;;;;21.65;13.48;;;;;;;6.14;100.00;100186.34;4916034;29;20072;-72
2023/04/11 07:28:32;;;;;;;20.77;12.23;;;;;;;6.18;100.00;100187.75;4915476;29;20437;-73
2023/04/11 07:30:58;;;;;;;16.55;11.77;;;;;;;6.19;100.00;100191.25;4916576;29;20068;-73
2023/04/11 07:33:25;;;;;;;22.00;12.35;;;;;;;5.85;100.00;100189.09;4909932;29;20112;-72
2023/04/11 07:35:51;;;;;;;18.92;12.38;;;;;;;5.76;100.00;100182.78;4915990;29;20064;-74
2023/04/11 07:38:26;;;;;;;20.25;11.63;;;;;;;5.83;100.00;100184.88;4912844;29;20049;-75
2023/04/11 07:40:53;;;;;;;16.75;10.75;;;;;;;6.05;100.00;100183.72;4916513;29;20064;-76
2023/04/11 07:43:19;;;;;;;18.08;11.18;;;;;;;5.99;100.00;100180.66;4916478;29;20039;-74
2023/04/11 07:45:46;;;;;;;18.05;11.35;;;;;;;6.13;100.00;100187.34;4915588;29;20052;-75
2023/04/11 07:48:13;;;;;;;16.95;10.90;;;;;;;6.20;100.00;100184.94;4916018;29;20056;-76
2023/04/11 07:50:40;;;;;;;22.33;11.70;;;;;;;6.26;100.00;100188.88;4916220;29;20055;-76
2023/04/11 07:53:09;;;;;;;18.27;10.95;;;;;;;6.24;100.00;100181.00;4921140;29;20059;-76
2023/04/11 07:55:36;;;;;;;16.77;10.88;;;;;;;6.26;100.00;100181.72;4919209;29;20058;-75
2023/04/11 07:58:03;;;;;;;20.25;10.57;;;;;;;6.17;100.00;100185.22;4903485;29;20060;-75
2023/04/11 08:00:33;;;;;;;20.00;11.60;;;;;;;6.23;100.00;100185.50;4906205;29;20052;-75
2023/04/11 08:03:07;;;;;;;23.98;11.55;;;;;;;6.28;100.00;100189.56;4934480;29;20044;-75
2023/04/11 08:05:35;;;;;;;21.55;11.73;;;;;;;6.25;100.00;100182.66;4937929;29;20055;-75
2023/04/11 08:08:03;;;;;;;20.38;10.35;;;;;;;6.20;100.00;100195.59;4935106;29;20079;-75
2023/04/11 08:10:29;;;;;;;16.52;10.40;;;;;;;6.24;100.00;100200.47;4938198;29;20055;-75
2023/04/11 08:12:57;;;;;;;19.55;10.77;;;;;;;6.28;100.00;100197.56;4937966;29;20048;-77
2023/04/11 08:15:24;;;;;;;13.15;9.25;;;;;;;6.27;100.00;100204.72;4929388;29;20044;-76
2023/04/11 08:17:55;;;;;;;15.68;10.02;;;;;;;6.31;100.00;100207.94;4908264;29;20410;-77
2023/04/11 08:20:23;;;;;;;12.10;7.85;;;;;;;6.35;100.00;100218.13;4887393;29;20053;-76
2023/04/11 08:22:49;;;;;;;12.30;7.63;;;;;;;6.19;100.00;100216.06;4896871;29;20147;-77
2023/04/11 08:25:21;;;;;;;12.35;6.22;;;;;;;6.21;100.00;100222.06;4896963;29;20049;-76
2023/04/11 08:27:48;;;;;;;18.70;7.05;;;;;;;6.08;100.00;100232.22;4896781;29;20094;-77
2023/04/11 08:30:16;;;;;;;11.23;6.88;;;;;;;6.16;100.00;100224.34;4897392;29;20059;-76
2023/04/11 08:32:44;;;;;;;12.68;6.22;;;;;;;5.99;100.00;100225.91;4890012;29;20490;-77
2023/04/11 08:35:10;;;;;;;10.43;4.65;;;;;;;6.07;100.00;100235.84;4903827;29;20049;-76
2023/04/11 08:37:38;;;;;;;9.70;5.18;;;;;;;6.10;100.00;100229.41;4902031;29;20040;-76
2023/04/11 08:40:05;;;;;;;9.75;4.40;;;;;;;6.15;100.00;100238.66;4910602;29;20036;-76
2023/04/11 08:42:33;;;;;;;9.38;4.18;;;;;;;6.09;100.00;100233.06;4920029;29;20043;-76
2023/04/11 08:45:02;;;;;;;11.95;4.68;;;;;;;5.98;100.00;100239.38;4920457;29;20036;-76
2023/04/11 08:47:29;;;;;;;10.05;4.18;;;;;;;6.14;100.00;100226.28;4904405;29;20032;-76
2023/04/11 09:33:57;;;;;;;11.60;3.00;;;;;;;8.62;100.00;100222.31;5940110;23;20824;-74
2023/04/11 09:36:29;;;;;;;8.93;2.42;;;;;;;9.00;100.00;100226.31;4897708;29;20049;-76
2023/04/11 09:38:57;;;;;;;9.00;2.75;;;;;;;9.00;100.00;100220.97;5422247;23;20047;-76
2023/04/11 09:41:37;;;;;;;9.45;2.70;;;;;;;9.00;100.00;100223.66;4937258;29;20031;-75
2023/04/11 09:44:04;;;;;;;16.65;2.70;;;;;;;8.88;100.00;100219.59;4919724;29;20067;-76
2023/04/11 09:46:30;;;;;;;12.57;2.50;;;;;;;8.27;100.00;100213.44;4915082;29;20051;-76
2023/04/11 09:48:57;;;;;;;9.40;2.58;;;;;;;8.28;100.00;100215.13;4929502;29;20063;-75
2023/04/11 09:51:23;;;;;;;8.27;2.22;;;;;;;8.79;100.00;100225.91;4924066;29;20052;-77
2023/04/11 09:54:02;;;;;;;15.63;5.63;;;;;;;9.26;100.00;100217.38;4912922;29;20056;-77
2023/04/11 09:56:30;;;;;;;13.70;3.00;;;;;;;9.13;100.00;100219.66;4899233;29;20040;-76
2023/04/11 09:58:58;;;;;;;14.98;2.92;;;;;;;9.05;100.00;100224.00;4915020;29;20421;-75
2023/04/11 10:01:25;;;;;;;16.35;2.97;;;;;;;9.03;100.00;100227.84;4901133;29;20051;-77
2023/04/11 10:03:54;;;;;;;14.10;3.03;;;;;;;9.42;100.00;100227.31;4931763;29;20049;-77
2023/04/11 10:06:33;;;;;;;15.30;3.10;;;;;;;9.86;100.00;100227.84;4931901;29;20390;-77
2023/04/11 10:09:09;;;;;;;14.75;2.75;;;;;;;9.90;100.00;100231.03;4932159;29;20062;-77
2023/04/11 10:11:40;;;;;;;8.68;2.25;;;;;;;9.89;100.00;100230.19;4932190;29;20052;-77
2023/04/11 10:14:06;;;;;;;11.48;2.40;;;;;;;10.77;100.00;100232.06;4932754;29;20130;-77
2023/04/11 10:16:34;;;;;;;8.50;2.60;;;;;;;11.63;100.00;100230.25;4931806;29;20126;-78
2023/04/11 10:19:00;;;;;;;8.40;2.17;;;;;;;11.41;84.92;100235.44;4932101;29;20047;-77
2023/04/11 10:21:33;;;;;;;10.25;2.20;;;;;;;11.81;84.38;100212.00;4930205;29;20107;-77
2023/04/11 10:24:06;;;;;;;12.70;2.75;;;;;;;12.56;75.43;100223.72;4931665;29;20050;-78
2023/04/11 10:26:56;;;;;;;7.53;2.33;;;;;;;12.28;72.62;100218.97;4931390;29;20058;-77
2023/04/11 10:29:32;;;;;;;10.23;2.45;;;;;;;12.56;70.99;100215.66;4922668;29;20052;-77
2023/04/11 10:32:14;;;;;;;9.20;1.95;;;;;;;12.70;68.87;100217.50;4911370;29;20143;-77
2023/04/11 10:34:52;;;;;;;6.68;2.05;;;;;;;12.97;66.05;100221.41;4912344;29;20048;-77
2023/04/11 10:37:33;;;;;;;9.35;2.33;;;;;;;12.56;66.79;100212.94;4895708;29;20419;-77
2023/04/11 10:40:00;;;;;;;6.47;1.77;;;;;;;11.86;68.05;100201.53;4913077;29;20055;-77
2023/04/11 10:42:33;;;;;;;7.78;2.05;;;;;;;11.54;68.99;100204.44;4912732;29;20112;-76
2023/04/11 10:45:29;;;;;;;8.95;2.35;;;;;;;10.94;72.98;100206.00;4912182;29;20085;-78
2023/04/11 10:47:55;;;;;;;8.95;2.28;;;;;;;10.43;77.78;100190.22;4910537;29;20115;-77
2023/04/11 10:50:22;;;;;;;7.90;1.88;;;;;;;10.18;82.37;100202.84;4912525;29;20107;-78
2023/04/11 10:52:49;;;;;;;7.72;2.05;;;;;;;9.72;88.55;100204.41;4912725;29;20052;-75
2023/04/11 10:55:16;;;;;;;9.05;1.90;;;;;;;9.33;100.00;100205.03;4911345;29;20527;-76
2023/04/11 10:58:06;;;;;;;7.38;2.08;;;;;;;8.87;100.00;100215.25;4912286;29;20056;-75
2023/04/11 11:00:59;;;;;;;9.15;1.38;;;;;;;8.36;100.00;100220.53;4913356;29;20052;-76
2023/04/11 11:03:29;;;;;;;7.25;1.75;;;;;;;7.93;100.00;100213.38;4868832;29;20053;-76
2023/04/11 11:06:05;;;;;;;5.78;1.58;;;;;;;7.87;100.00;100216.66;4876825;29;20099;-77
2023/04/11 11:08:34;;;;;;;8.80;2.25;;;;;;;8.12;100.00;100213.19;4877299;29;20184;-75
2023/04/11 11:11:02;;;;;;;10.82;2.20;;;;;;;8.23;100.00;100220.09;4877346;29;20049;-76
2023/04/11 11:13:39;;;;;;;10.82;1.98;;;;;;;8.54;100.00;100223.13;4877586;29;20048;-75
2023/04/11 11:16:08;;;;;;;4.53;1.70;;;;;;;9.49;100.00;100215.75;4875598;29;20045;-77
2023/04/11 11:18:35;;;;;;;9.27;2.15;;;;;;;10.56;100.00;100221.91;4874633;29;20049;-77
2023/04/11 11:21:02;;;;;;;8.68;1.92;;;;;;;10.76;100.00;100214.28;4874800;29;20053;-77
2023/04/11 11:23:31;;;;;;;5.05;1.88;;;;;;;10.07;100.00;100224.66;4875495;29;20052;-77
2023/04/11 11:25:59;;;;;;;6.75;1.92;;;;;;;9.61;100.00;100224.28;4876908;29;20076;-77
2023/04/11 11:28:26;;;;;;;4.78;1.60;;;;;;;9.13;100.00;100233.03;4878708;29;20494;-76
2023/04/11 11:30:54;;;;;;;4.97;1.70;;;;;;;9.16;100.00;100235.41;4877394;29;20053;-76
2023/04/11 11:33:25;;;;;;;6.90;1.75;;;;;;;10.21;100.00;100231.16;4878790;29;20049;-77
2023/04/11 11:35:55;;;;;;;7.43;1.48;;;;;;;10.09;100.00;100233.34;4879422;29;20558;-77
2023/04/11 11:38:25;;;;;;;8.30;1.98;;;;;;;10.50;100.00;100231.47;4876885;29;20061;-78
2023/04/11 11:40:52;;;;;;;4.38;1.58;;;;;;;10.31;100.00;100239.03;4878809;29;20417;-77
2023/04/11 11:43:19;;;;;;;5.05;1.30;;;;;;;10.26;100.00;100240.34;4877995;29;20494;-75
2023/04/11 11:45:46;;;;;;;5.28;1.52;;;;;;;11.35;90.50;100252.25;4878471;29;20063;-77
2023/04/11 11:48:23;;;;;;;6.72;1.42;;;;;;;10.74;88.77;100254.69;4879145;29;20055;-77
2023/04/11 11:50:56;;;;;;;10.52;1.45;;;;;;;11.20;87.21;100251.31;4878170;29;20053;-75
2023/04/11 11:53:25;;;;;;;3.85;1.40;;;;;;;11.81;78.04;100260.38;4878530;29;20080;-77
2023/04/11 11:55:52;;;;;;;5.05;1.30;;;;;;;11.80;75.73;100260.56;4878386;29;20053;-76
2023/04/11 11:58:20;;;;;;;6.05;1.55;;;;;;;11.68;75.84;100268.19;4878779;29;20049;-76
2023/04/11 12:00:49;;;;;;;8.95;1.50;;;;;;;11.04;80.53;100262.97;4878573;29;20060;-77
2023/04/11 12:03:19;;;;;;;11.15;1.88;;;;;;;10.39;84.79;100258.59;4912227;29;20076;-74
2023/04/11 12:05:46;;;;;;;8.30;1.23;;;;;;;9.88;90.26;100267.84;4911569;29;20545;-74
2023/04/11 12:08:13;;;;;;;6.45;1.52;;;;;;;11.62;79.27;100264.34;4916821;29;20058;-74